Time;durP1;ratioP1;P1;durP2;ratioP2;P2;SDS_P1;SDS_P2;PMS_P1;PMS_P2;Temp;Humidity;BMP_temperature;BMP_pressure;BME280_temperature;BME280_humidity;BME280_pressure;Samples;Min_cycle;Max_cycle;Signal;HPM_P1;HPM_P2
2022/07/03 00:00:27;;;;;;;4.97;1.27;;;;;;;18.58;60.34;101709.50;4991662;28;20401;-31
2022/07/03 00:02:53;;;;;;;3.88;1.13;;;;;;;18.62;60.11;101708.03;4991747;28;20034;-29
2022/07/03 00:05:19;;;;;;;2.92;1.10;;;;;;;18.57;59.29;101693.38;4991121;28;20381;-30
2022/07/03 00:07:44;;;;;;;9.23;1.90;;;;;;;18.61;60.42;101708.22;4991713;28;20026;-31
2022/07/03 00:10:09;;;;;;;5.53;1.58;;;;;;;18.62;59.72;101707.19;4991232;28;20635;-30
2022/07/03 00:12:35;;;;;;;2.55;1.33;;;;;;;18.64;60.12;101696.88;4991864;28;20041;-31
2022/07/03 00:15:00;;;;;;;3.85;1.50;;;;;;;18.61;59.94;101705.50;4990257;28;20046;-31
2022/07/03 00:17:25;;;;;;;1.90;1.10;;;;;;;18.63;60.12;101701.50;4991172;28;20117;-30
2022/07/03 00:19:51;;;;;;;2.63;1.10;;;;;;;18.59;59.98;101700.28;4991240;28;20058;-30
2022/07/03 00:22:17;;;;;;;4.95;1.15;;;;;;;18.55;59.83;101698.19;4991224;28;20378;-31
2022/07/03 00:24:53;;;;;;;6.05;1.27;;;;;;;18.55;60.82;101707.19;4973717;28;20398;-30
2022/07/03 00:27:21;;;;;;;4.90;1.10;;;;;;;18.56;60.43;101702.56;4991473;28;20039;-30
2022/07/03 00:29:49;;;;;;;10.50;1.58;;;;;;;18.45;60.49;101712.25;4990882;28;20041;-30
2022/07/03 00:32:21;;;;;;;3.47;1.13;;;;;;;18.43;60.60;101711.63;4991295;28;20085;-32
2022/07/03 00:34:47;;;;;;;1.85;1.02;;;;;;;18.42;60.99;101707.22;4990430;28;20133;-30
2022/07/03 00:37:12;;;;;;;4.28;1.50;;;;;;;18.45;60.96;101698.63;4990007;28;20121;-29
2022/07/03 00:39:40;;;;;;;2.60;1.05;;;;;;;18.47;61.04;101698.44;4990714;28;20061;-30
2022/07/03 00:42:06;;;;;;;7.25;1.40;;;;;;;18.48;61.12;101695.47;4991116;28;20117;-30
2022/07/03 00:44:35;;;;;;;7.07;1.20;;;;;;;18.48;61.64;101697.34;4991074;28;20042;-30
2022/07/03 00:47:02;;;;;;;7.45;1.35;;;;;;;18.48;61.27;101695.47;4991144;28;20053;-30
2022/07/03 00:49:29;;;;;;;2.83;1.00;;;;;;;18.44;61.44;101705.13;4989428;28;20023;-29
2022/07/03 00:51:56;;;;;;;3.88;1.20;;;;;;;18.36;61.52;101699.91;4990988;28;20062;-30
2022/07/03 00:54:22;;;;;;;2.63;1.00;;;;;;;18.40;61.74;101698.44;4991006;28;20038;-29
2022/07/03 00:56:52;;;;;;;5.13;1.10;;;;;;;18.36;61.93;101697.19;4990820;28;20078;-30
2022/07/03 00:59:18;;;;;;;4.88;1.10;;;;;;;18.39;62.45;101691.31;4989699;28;20034;-29
2022/07/03 01:01:45;;;;;;;2.55;0.80;;;;;;;18.39;62.27;101691.31;4989417;28;20030;-29
2022/07/03 01:04:21;;;;;;;1.77;0.80;;;;;;;18.44;62.82;101699.69;4989088;28;20043;-31
2022/07/03 01:07:00;;;;;;;1.23;0.77;;;;;;;18.41;62.38;101689.22;4989137;28;20026;-29
2022/07/03 01:09:46;;;;;;;3.88;0.82;;;;;;;18.36;62.42;101689.00;4989927;28;20085;-31
2022/07/03 01:12:23;;;;;;;3.15;1.10;;;;;;;18.35;62.85;101693.63;4989740;28;20130;-32
2022/07/03 01:14:58;;;;;;;1.70;0.80;;;;;;;18.33;62.62;101695.72;4990382;28;20034;-29
2022/07/03 01:17:26;;;;;;;3.13;1.02;;;;;;;18.31;62.72;101694.25;4971516;28;20038;-31
2022/07/03 01:19:57;;;;;;;2.17;1.00;;;;;;;18.33;62.46;101681.28;4984982;28;20544;-31
2022/07/03 01:22:22;;;;;;;4.65;1.00;;;;;;;18.33;62.93;101686.72;4990159;28;20038;-31
2022/07/03 01:25:09;;;;;;;2.60;0.80;;;;;;;18.33;62.60;101686.72;4989642;28;20088;-30
2022/07/03 01:27:42;;;;;;;4.68;1.00;;;;;;;18.34;62.84;101693.84;4971593;28;20023;-30
2022/07/03 01:30:10;;;;;;;4.70;1.40;;;;;;;18.25;62.00;101689.69;4987790;28;20038;-29
2022/07/03 01:32:43;;;;;;;4.30;1.13;;;;;;;18.21;62.21;101689.25;4970001;28;20027;-30
2022/07/03 01:35:09;;;;;;;4.75;0.90;;;;;;;18.26;62.40;101677.72;4985730;28;20141;-29
2022/07/03 01:37:35;;;;;;;10.15;0.98;;;;;;;18.20;62.27;101687.59;4989421;28;20046;-30
2022/07/03 01:40:03;;;;;;;5.75;0.88;;;;;;;18.16;62.34;101684.41;4990257;28;20034;-29
2022/07/03 01:42:32;;;;;;;4.25;0.80;;;;;;;18.21;62.77;101684.63;4992243;28;20357;-29
2022/07/03 01:44:59;;;;;;;7.63;1.08;;;;;;;18.27;62.72;101677.47;4992643;28;20026;-29
2022/07/03 01:47:26;;;;;;;5.97;1.00;;;;;;;18.31;62.52;101684.19;4994396;28;20034;-29
2022/07/03 01:49:52;;;;;;;6.60;1.55;;;;;;;18.33;62.68;101679.38;4994656;28;20026;-30
2022/07/03 01:52:19;;;;;;;5.47;1.00;;;;;;;18.28;63.11;101687.34;4993158;28;20026;-30
2022/07/03 01:54:45;;;;;;;6.65;1.00;;;;;;;18.23;63.28;101684.41;4994402;28;20034;-30
2022/07/03 01:57:10;;;;;;;6.38;0.77;;;;;;;18.25;63.79;101678.78;4992877;28;20018;-31
2022/07/03 01:59:35;;;;;;;7.95;1.23;;;;;;;18.25;63.89;101673.31;4994198;28;20030;-32
2022/07/03 02:02:16;;;;;;;10.77;1.10;;;;;;;18.28;64.20;101678.34;4994070;28;20058;-31
2022/07/03 02:04:51;;;;;;;5.70;0.90;;;;;;;18.27;64.72;101676.66;4993878;28;20037;-31
2022/07/03 02:07:40;;;;;;;6.60;0.90;;;;;;;18.22;65.18;101669.13;4993776;28;20078;-30
2022/07/03 02:10:08;;;;;;;5.55;1.10;;;;;;;18.08;65.78;101673.75;4987793;28;20656;-30
2022/07/03 02:12:47;;;;;;;5.97;0.98;;;;;;;18.03;66.42;101668.09;4992128;28;20520;-32
2022/07/03 02:15:16;;;;;;;6.30;1.25;;;;;;;17.94;66.92;101662.03;4992524;28;20104;-32
2022/07/03 02:17:46;;;;;;;9.70;2.03;;;;;;;17.92;67.30;101663.28;4993940;28;20030;-32
2022/07/03 02:20:13;;;;;;;13.77;1.17;;;;;;;17.90;67.58;101657.22;4993769;28;20034;-32
2022/07/03 02:22:52;;;;;;;6.70;1.23;;;;;;;17.90;68.00;101658.03;4992030;28;20046;-32
2022/07/03 02:25:21;;;;;;;3.97;1.00;;;;;;;17.95;67.98;101655.53;4993664;28;20109;-31
2022/07/03 02:27:57;;;;;;;4.88;1.25;;;;;;;17.94;68.27;101650.31;4991974;28;20100;-31
2022/07/03 02:30:24;;;;;;;10.25;1.42;;;;;;;17.95;68.35;101646.53;4992267;28;20129;-32
2022/07/03 02:32:52;;;;;;;8.05;1.35;;;;;;;17.95;68.31;101643.81;5014630;23;20446;-26
2022/07/03 02:35:27;;;;;;;7.20;1.30;;;;;;;17.90;68.39;101644.44;4987048;28;20065;-26
2022/07/03 02:38:10;;;;;;;4.10;1.20;;;;;;;17.89;68.48;101640.03;4989775;28;20085;-27
2022/07/03 02:41:12;;;;;;;9.02;1.27;;;;;;;17.85;68.61;101651.56;4977950;28;20497;-28
2022/07/03 02:43:41;;;;;;;6.97;1.25;;;;;;;17.77;68.91;101650.72;4992415;28;20508;-28
2022/07/03 02:46:48;;;;;;;7.20;1.48;;;;;;;17.72;69.22;101653.22;4993156;28;20057;-27
2022/07/03 02:49:48;;;;;;;11.40;1.42;;;;;;;17.63;69.85;101657.19;4991982;28;20112;-27
2022/07/03 02:52:13;;;;;;;5.90;1.33;;;;;;;17.58;70.15;101667.03;4987287;28;20556;-28
2022/07/03 02:54:46;;;;;;;5.40;1.27;;;;;;;17.58;70.22;101662.41;4992332;28;20117;-27
2022/07/03 02:57:14;;;;;;;7.03;1.70;;;;;;;17.55;70.38;101662.84;4993155;28;20022;-26
2022/07/03 03:00:00;;;;;;;;;;;;;;;17.56;70.61;101659.06;4993579;28;20058;-28
2022/07/03 03:02:47;;;;;;;6.68;1.23;;;;;;;17.56;70.69;101656.34;4992326;28;19914;-28
2022/07/03 03:05:15;;;;;;;4.80;1.55;;;;;;;17.59;71.00;101658.66;4992858;28;20034;-27
2022/07/03 03:08:09;;;;;;;4.68;1.08;;;;;;;17.58;70.60;101656.97;4992632;28;20065;-27
2022/07/03 03:10:39;;;;;;;13.70;1.45;;;;;;;17.55;70.89;101657.41;4992999;28;20112;-26
2022/07/03 03:13:11;;;;;;;12.00;1.42;;;;;;;17.50;70.79;101659.91;4991923;28;20516;-28
2022/07/03 03:15:37;;;;;;;7.93;1.85;;;;;;;17.48;71.34;101657.41;4974346;28;20030;-27
2022/07/03 03:18:09;;;;;;;7.63;1.10;;;;;;;17.46;71.50;101656.78;4992549;28;20031;-28
2022/07/03 03:20:36;;;;;;;5.68;1.23;;;;;;;17.44;71.56;101660.75;4991245;28;20121;-26
2022/07/03 03:23:13;;;;;;;7.60;1.10;;;;;;;17.40;71.52;101664.91;4992158;28;20030;-27
2022/07/03 03:25:39;;;;;;;8.80;1.23;;;;;;;17.31;71.75;101661.56;4992306;28;20661;-27
2022/07/03 03:28:04;;;;;;;10.40;1.58;;;;;;;17.28;72.11;101654.66;4991261;28;20027;-26
2022/07/03 03:30:30;;;;;;;7.15;1.90;;;;;;;17.21;72.24;101653.78;4991837;28;20730;-28
2022/07/03 03:32:55;;;;;;;6.07;1.20;;;;;;;17.18;72.51;101656.94;4991552;28;20054;-27
2022/07/03 03:35:20;;;;;;;5.15;1.10;;;;;;;17.15;72.78;101656.50;4992171;28;20042;-28
2022/07/03 03:37:48;;;;;;;4.72;1.30;;;;;;;17.12;72.92;101665.91;4992318;28;20141;-27
2022/07/03 03:40:15;;;;;;;10.98;1.77;;;;;;;17.10;73.15;101665.28;4992010;28;20030;-26
2022/07/03 03:42:40;;;;;;;10.25;1.50;;;;;;;17.08;73.32;101661.91;4990507;28;20084;-27
2022/07/03 03:45:06;;;;;;;9.73;1.58;;;;;;;17.08;73.65;101668.19;4991905;28;20486;-27
2022/07/03 03:47:33;;;;;;;10.10;1.48;;;;;;;17.11;73.98;101667.81;4992239;28;20030;-27
2022/07/03 03:50:00;;;;;;;4.45;1.30;;;;;;;17.15;74.04;101673.66;4992241;28;20346;-27
2022/07/03 03:52:25;;;;;;;8.73;1.30;;;;;;;17.17;73.95;101665.28;4992127;28;20035;-28
2022/07/03 03:54:50;;;;;;;5.20;1.20;;;;;;;17.20;73.94;101670.34;4992410;28;20048;-28
2022/07/03 03:57:16;;;;;;;7.20;1.15;;;;;;;17.18;74.09;101662.38;4990517;28;20532;-27
2022/07/03 03:59:41;;;;;;;8.30;1.50;;;;;;;17.14;74.05;101655.69;4991809;28;20030;-27
2022/07/03 04:02:06;;;;;;;7.30;1.10;;;;;;;17.19;74.18;101661.31;4991162;28;20038;-28
2022/07/03 04:04:32;;;;;;;10.07;1.70;;;;;;;17.20;74.33;101665.72;4991247;28;20030;-26
2022/07/03 04:06:57;;;;;;;4.25;1.25;;;;;;;17.16;74.83;101667.16;4990657;28;20046;-26
2022/07/03 04:09:22;;;;;;;5.53;1.45;;;;;;;17.12;75.30;101663.19;4991275;28;20500;-27
2022/07/03 04:11:48;;;;;;;5.82;1.25;;;;;;;17.12;75.53;101668.63;4990782;28;20534;-27
2022/07/03 04:14:13;;;;;;;8.82;1.42;;;;;;;17.15;75.91;101675.56;4991009;28;20486;-28
2022/07/03 04:16:38;;;;;;;7.03;1.38;;;;;;;17.11;76.17;101672.38;4989376;28;20555;-27
2022/07/03 04:19:04;;;;;;;9.63;1.67;;;;;;;17.05;76.53;101667.78;4983636;28;20509;-25
2022/07/03 04:21:29;;;;;;;8.10;1.30;;;;;;;17.02;76.98;101662.75;4990534;28;20116;-26
2022/07/03 04:23:54;;;;;;;10.00;1.65;;;;;;;16.96;77.58;101671.72;4989435;28;20026;-27
2022/07/03 04:26:20;;;;;;;8.90;1.70;;;;;;;16.95;78.01;101672.75;4991325;28;20026;-27
2022/07/03 04:28:45;;;;;;;6.60;1.52;;;;;;;16.88;78.07;101673.56;4989750;28;20109;-27
2022/07/03 04:31:10;;;;;;;9.48;2.00;;;;;;;16.90;78.75;101667.91;4991402;28;20101;-27
2022/07/03 04:33:36;;;;;;;13.65;1.88;;;;;;;16.96;78.67;101674.44;4990366;28;20054;-27
2022/07/03 04:36:01;;;;;;;8.15;1.77;;;;;;;16.96;78.67;101669.84;4991219;28;20020;-28
2022/07/03 04:38:26;;;;;;;15.05;1.85;;;;;;;16.95;78.95;101672.75;4990963;28;20565;-27
2022/07/03 04:40:52;;;;;;;12.68;2.00;;;;;;;16.97;79.18;101676.13;4991127;28;20217;-27
2022/07/03 04:43:18;;;;;;;9.23;1.92;;;;;;;17.00;79.14;101672.97;4987364;28;20072;-26
2022/07/03 04:45:43;;;;;;;9.27;1.45;;;;;;;17.09;79.23;101678.03;4986102;28;20216;-27
2022/07/03 04:48:09;;;;;;;10.98;1.60;;;;;;;17.16;79.10;101679.94;4990102;28;20043;-28
2022/07/03 04:50:34;;;;;;;11.27;2.22;;;;;;;17.18;78.76;101680.56;4990795;28;20041;-28
2022/07/03 04:52:59;;;;;;;8.70;1.65;;;;;;;17.18;78.84;101683.28;4989321;28;21618;-27
2022/07/03 04:55:25;;;;;;;6.95;1.77;;;;;;;17.17;78.94;101677.03;4990484;28;20058;-27
2022/07/03 04:57:50;;;;;;;11.98;1.80;;;;;;;17.12;79.04;101684.97;4988459;28;20038;-27
2022/07/03 05:00:15;;;;;;;10.90;1.98;;;;;;;17.08;79.57;101679.06;4990553;28;20049;-25
2022/07/03 05:02:41;;;;;;;9.82;1.85;;;;;;;17.05;79.92;101684.09;4990097;28;20042;-30
2022/07/03 05:05:06;;;;;;;11.95;2.00;;;;;;;17.07;80.28;101690.16;4989922;28;20433;-27
2022/07/03 05:07:32;;;;;;;10.32;1.85;;;;;;;17.03;80.28;101683.44;4991121;28;20131;-27
2022/07/03 05:09:58;;;;;;;12.48;1.80;;;;;;;17.09;80.64;101686.19;4989510;28;20034;-29
2022/07/03 05:12:23;;;;;;;14.98;1.98;;;;;;;16.99;80.47;101690.34;4987469;28;20042;-28
2022/07/03 05:14:48;;;;;;;15.50;1.90;;;;;;;17.01;81.01;101688.25;4985184;28;20668;-27
2022/07/03 05:17:17;;;;;;;10.98;2.03;;;;;;;17.12;81.12;101690.41;4991662;28;20026;-27
2022/07/03 05:19:42;;;;;;;11.90;1.70;;;;;;;17.21;80.25;101689.16;4994330;28;20034;-26
2022/07/03 05:22:07;;;;;;;12.25;1.88;;;;;;;17.34;80.18;101683.75;4994192;28;20722;-27
2022/07/03 05:24:33;;;;;;;10.05;1.70;;;;;;;17.33;79.23;101692.97;4994271;28;20513;-29
2022/07/03 05:26:58;;;;;;;11.27;1.98;;;;;;;17.43;79.28;101692.56;4993074;28;20048;-27
2022/07/03 05:29:23;;;;;;;9.13;1.85;;;;;;;17.39;78.86;101693.19;4992392;28;20038;-26
2022/07/03 05:31:49;;;;;;;15.88;1.90;;;;;;;17.41;79.01;101693.81;4994578;28;20109;-27
2022/07/03 05:34:14;;;;;;;10.95;2.33;;;;;;;17.36;79.26;101691.72;4992730;28;20458;-26
2022/07/03 05:36:40;;;;;;;13.95;2.30;;;;;;;17.46;79.28;101705.75;4994255;28;20026;-27
2022/07/03 05:41:49;;;;;;;6.90;1.73;;;;;;;17.71;78.65;101700.53;4991645;28;20312;-27
2022/07/03 05:44:14;;;;;;;11.20;2.00;;;;;;;17.79;78.22;101702.25;4994155;28;20465;-27
2022/07/03 05:46:40;;;;;;;9.27;2.40;;;;;;;17.86;78.46;101702.28;4993984;28;20065;-29
2022/07/03 05:49:05;;;;;;;11.98;2.38;;;;;;;17.91;78.12;101705.22;4994146;28;20030;-29
2022/07/03 05:51:30;;;;;;;11.85;2.10;;;;;;;18.07;77.92;101702.06;4994173;28;20026;-27
2022/07/03 05:53:56;;;;;;;12.63;2.25;;;;;;;18.01;77.37;101694.72;4992246;28;20382;-27
2022/07/03 05:56:21;;;;;;;9.82;1.92;;;;;;;17.99;77.64;101707.72;4982819;28;20561;-27
2022/07/03 05:58:46;;;;;;;14.05;2.55;;;;;;;18.08;77.80;101695.53;4989555;28;20057;-27
2022/07/03 06:01:12;;;;;;;10.32;2.13;;;;;;;18.30;76.99;101698.88;4993757;28;20565;-26
2022/07/03 06:03:37;;;;;;;9.60;1.75;;;;;;;18.57;77.10;101702.38;4993921;28;20377;-26
2022/07/03 06:06:03;;;;;;;12.52;2.10;;;;;;;18.82;75.77;101707.13;4993874;28;20045;-27
2022/07/03 06:08:28;;;;;;;14.02;2.15;;;;;;;18.71;73.85;101699.59;4993814;28;20041;-28
2022/07/03 06:10:55;;;;;;;10.35;1.95;;;;;;;18.74;74.61;101696.44;4993496;28;20596;-28
2022/07/03 06:13:20;;;;;;;6.97;1.73;;;;;;;19.01;74.61;101706.25;4992596;28;20434;-26
2022/07/03 06:15:46;;;;;;;6.78;1.90;;;;;;;19.11;71.50;101705.75;4993235;28;20042;-26
2022/07/03 06:18:12;;;;;;;10.65;2.22;;;;;;;19.33;70.51;101706.28;4993510;28;20034;-26
2022/07/03 06:20:37;;;;;;;7.20;1.75;;;;;;;19.25;70.46;101703.81;4992179;28;20034;-27
2022/07/03 06:23:02;;;;;;;9.93;1.85;;;;;;;19.55;70.04;101705.94;4992131;28;20211;-27
2022/07/03 06:25:27;;;;;;;7.32;2.08;;;;;;;19.73;68.35;101709.59;4993296;28;20124;-27
2022/07/03 06:27:53;;;;;;;7.05;1.70;;;;;;;19.74;68.71;101713.16;4992237;28;20030;-27
2022/07/03 06:30:18;;;;;;;4.25;2.10;;;;;;;19.92;69.32;101713.22;4988928;28;20038;-27
2022/07/03 06:32:44;;;;;;;5.40;1.98;;;;;;;20.04;68.46;101712.53;4990460;28;20026;-28
2022/07/03 06:35:09;;;;;;;10.60;2.40;;;;;;;19.79;68.59;101713.34;4990556;28;20064;-27
2022/07/03 06:37:34;;;;;;;9.93;1.73;;;;;;;19.64;69.64;101705.44;4978326;28;20038;-28
2022/07/03 06:40:00;;;;;;;6.88;1.70;;;;;;;19.68;70.21;101711.31;4990592;28;20062;-26
2022/07/03 06:42:25;;;;;;;11.57;2.05;;;;;;;19.85;69.17;101707.00;4990123;28;20456;-26
2022/07/03 06:44:51;;;;;;;8.32;1.75;;;;;;;19.92;68.21;101713.22;5000449;28;20388;-27
2022/07/03 06:47:16;;;;;;;7.88;1.77;;;;;;;19.85;68.83;101717.94;4992190;28;20110;-27
2022/07/03 06:49:43;;;;;;;5.95;1.70;;;;;;;19.90;69.45;101715.34;4990723;28;20090;-29
2022/07/03 06:52:08;;;;;;;9.30;1.95;;;;;;;20.08;68.09;101722.75;4990955;28;20029;-27
2022/07/03 06:54:34;;;;;;;6.88;1.70;;;;;;;20.32;67.53;101715.59;4990256;28;20034;-28
2022/07/03 06:56:59;;;;;;;3.78;1.65;;;;;;;20.68;66.42;101711.25;4990586;28;20034;-27
2022/07/03 06:59:24;;;;;;;8.90;2.08;;;;;;;21.02;64.32;101718.00;4990708;28;20030;-27
2022/07/03 07:01:50;;;;;;;7.28;1.73;;;;;;;21.24;63.73;101715.59;4990253;28;20128;-26
2022/07/03 07:04:16;;;;;;;4.43;1.30;;;;;;;21.64;63.06;101719.69;4990919;28;20034;-24
2022/07/03 07:06:41;;;;;;;8.00;1.48;;;;;;;21.66;61.83;101714.81;4990728;28;20038;-27
2022/07/03 07:09:06;;;;;;;8.00;1.15;;;;;;;22.09;60.82;101725.50;4989305;28;20036;-27
2022/07/03 07:11:32;;;;;;;4.38;1.35;;;;;;;22.34;58.46;101732.66;4989948;28;20695;-26
2022/07/03 07:13:57;;;;;;;6.22;1.85;;;;;;;22.34;58.02;101736.25;4990182;28;20057;-27
2022/07/03 07:16:23;;;;;;;5.50;1.80;;;;;;;22.00;57.67;101728.81;4990023;28;20034;-27
2022/07/03 07:18:48;;;;;;;6.13;1.80;;;;;;;21.46;59.58;101735.13;4990368;28;20077;-26
2022/07/03 07:21:14;;;;;;;4.63;1.45;;;;;;;21.00;60.77;101741.19;4988881;28;20030;-29
2022/07/03 07:23:39;;;;;;;5.00;1.55;;;;;;;21.00;61.45;101736.53;4988243;28;20030;-28
2022/07/03 07:26:05;;;;;;;6.95;1.23;;;;;;;21.13;60.89;101741.00;4989625;28;20084;-26
2022/07/03 07:28:33;;;;;;;1.27;1.05;;;;;;;21.29;60.31;101742.28;4989338;28;20389;-26
2022/07/03 07:30:58;;;;;;;4.45;1.23;;;;;;;21.29;60.66;101744.19;4990061;28;20030;-27
2022/07/03 07:33:24;;;;;;;4.57;1.58;;;;;;;20.85;60.96;101749.75;4988649;28;20050;-27
2022/07/03 07:35:50;;;;;;;5.93;1.45;;;;;;;20.91;61.13;101748.03;4989636;28;20042;-27
2022/07/03 07:38:17;;;;;;;5.45;1.63;;;;;;;20.30;62.95;101755.16;4989053;28;20501;-27
2022/07/03 07:40:42;;;;;;;5.43;1.58;;;;;;;20.70;63.03;101758.38;4986601;28;20027;-27
2022/07/03 07:43:08;;;;;;;7.28;1.58;;;;;;;20.87;62.58;101758.59;4989349;28;20500;-27
2022/07/03 07:45:33;;;;;;;5.20;1.73;;;;;;;20.76;62.32;101759.34;4987984;28;20026;-27
2022/07/03 07:47:59;;;;;;;4.18;1.30;;;;;;;20.88;61.78;101762.16;4989805;28;20441;-27
2022/07/03 07:50:27;;;;;;;8.00;1.98;;;;;;;21.29;59.97;101755.13;4989961;28;20056;-27
2022/07/03 07:52:53;;;;;;;5.63;1.30;;;;;;;22.25;59.61;101754.13;4991209;28;20030;-27
2022/07/03 07:55:20;;;;;;;8.63;1.40;;;;;;;23.36;55.52;101761.50;4965106;28;20031;-26
2022/07/03 07:57:45;;;;;;;2.85;1.00;;;;;;;23.21;53.64;101770.25;4991244;28;20417;-28
2022/07/03 08:00:13;;;;;;;6.57;1.45;;;;;;;23.13;54.72;101760.47;4989279;28;20030;-27
2022/07/03 08:05:38;;;;;;;7.07;1.50;;;;;;;22.11;57.31;101750.75;4990773;28;20045;-27
2022/07/03 08:08:08;;;;;;;6.63;1.25;;;;;;;21.51;59.10;101756.31;4978197;28;20503;-28
2022/07/03 08:10:40;;;;;;;4.28;1.25;;;;;;;21.29;60.77;101757.88;4994828;28;20026;-28
2022/07/03 08:13:06;;;;;;;7.88;1.50;;;;;;;21.96;61.42;101766.84;4991991;28;20473;-28
2022/07/03 08:15:32;;;;;;;5.80;1.60;;;;;;;23.34;55.42;101756.22;4974392;28;20093;-25
2022/07/03 08:17:57;;;;;;;3.72;1.00;;;;;;;23.78;54.19;101761.19;4991853;28;20041;-26
2022/07/03 08:20:22;;;;;;;7.63;1.63;;;;;;;23.63;53.26;101757.03;4991270;28;20117;-28
2022/07/03 08:22:48;;;;;;;4.07;1.10;;;;;;;24.18;52.05;101766.53;4972788;28;20026;-28
2022/07/03 08:25:14;;;;;;;5.35;1.48;;;;;;;24.05;52.35;101766.88;4974140;28;20489;-28
2022/07/03 08:27:39;;;;;;;3.53;1.30;;;;;;;23.43;52.72;101765.75;4991809;28;20433;-27
2022/07/03 08:30:05;;;;;;;7.65;1.13;;;;;;;22.69;55.13;101767.47;4991938;28;20389;-27
2022/07/03 08:32:30;;;;;;;5.20;1.17;;;;;;;22.08;58.29;101762.19;4991364;28;20339;-27
2022/07/03 08:34:56;;;;;;;8.00;1.58;;;;;;;21.75;58.87;101761.88;4989876;28;20152;-27
2022/07/03 08:37:21;;;;;;;3.97;1.27;;;;;;;21.48;60.49;101760.38;4991624;28;20034;-27
2022/07/03 08:39:46;;;;;;;4.68;1.27;;;;;;;21.30;61.85;101768.59;4991511;28;20018;-26
2022/07/03 08:42:15;;;;;;;6.32;1.35;;;;;;;21.09;60.40;101761.72;4991402;28;20066;-26
2022/07/03 08:44:41;;;;;;;3.83;1.20;;;;;;;20.90;61.82;101751.81;4991545;28;20457;-27
2022/07/03 08:47:08;;;;;;;6.13;1.30;;;;;;;20.74;63.25;101770.50;4990217;28;20030;-27
2022/07/03 08:49:34;;;;;;;4.05;1.13;;;;;;;20.83;63.53;101762.88;4973794;28;20026;-28
2022/07/03 08:52:00;;;;;;;4.03;1.23;;;;;;;20.79;62.31;101765.19;4990528;28;20040;-28
2022/07/03 08:54:25;;;;;;;1.70;0.98;;;;;;;20.70;62.79;101763.00;4991305;28;20456;-27
2022/07/03 08:56:51;;;;;;;5.05;1.20;;;;;;;20.42;63.88;101767.03;4991615;28;20042;-28
2022/07/03 08:59:17;;;;;;;4.18;1.25;;;;;;;20.34;63.55;101768.16;4990219;28;20022;-27
2022/07/03 09:01:46;;;;;;;4.40;1.02;;;;;;;20.43;63.49;101763.22;4989972;28;20093;-28
2022/07/03 09:04:15;;;;;;;2.28;1.00;;;;;;;20.27;62.82;101769.28;4991282;28;20026;-28
2022/07/03 09:06:43;;;;;;;3.40;1.30;;;;;;;20.29;63.56;101769.88;4989956;28;20112;-27
2022/07/03 09:09:08;;;;;;;2.83;1.20;;;;;;;20.34;64.03;101770.88;4991014;28;20057;-28
2022/07/03 09:11:37;;;;;;;2.40;1.00;;;;;;;20.41;64.14;101767.28;4989975;28;20026;-26
2022/07/03 09:14:06;;;;;;;4.38;1.95;;;;;;;20.48;62.99;101781.69;4989618;28;20085;-27
2022/07/03 09:16:32;;;;;;;4.78;1.15;;;;;;;20.68;61.52;101774.16;4991173;28;20073;-27
2022/07/03 09:18:57;;;;;;;3.78;1.33;;;;;;;20.91;62.44;101780.88;4990882;28;20080;-28
2022/07/03 09:21:24;;;;;;;3.35;0.90;;;;;;;21.13;59.78;101775.75;4991257;28;20023;-27
2022/07/03 09:23:51;;;;;;;2.72;0.90;;;;;;;21.32;58.80;101787.53;4989808;28;20049;-27
2022/07/03 09:26:18;;;;;;;4.97;1.20;;;;;;;21.51;58.38;101775.50;4989688;28;20034;-28
2022/07/03 09:28:51;;;;;;;1.27;1.10;;;;;;;21.87;58.24;101777.28;4991052;28;20030;-27
2022/07/03 09:31:18;;;;;;;2.38;0.93;;;;;;;22.68;56.43;101771.28;4990944;28;20030;-28
2022/07/03 09:34:00;;;;;;;0.82;0.80;;;;;;;23.75;53.22;101779.03;4990208;28;20050;-28
2022/07/03 09:36:44;;;;;;;2.85;0.93;;;;;;;23.85;52.13;101784.66;4989607;28;20034;-28
2022/07/03 09:39:16;;;;;;;2.97;1.10;;;;;;;24.73;50.28;101785.00;4991235;28;20386;-25
2022/07/03 09:41:54;;;;;;;2.97;0.95;;;;;;;25.55;48.23;101779.69;4990913;28;20446;-28
2022/07/03 09:44:34;;;;;;;1.90;0.73;;;;;;;25.19;49.06;101782.88;4990472;28;20031;-27
2022/07/03 09:47:12;;;;;;;4.75;1.30;;;;;;;24.66;48.89;101787.09;4990675;28;20035;-28
2022/07/03 09:49:56;;;;;;;3.45;0.88;;;;;;;23.72;51.32;101776.75;4990370;28;20037;-26
2022/07/03 09:52:37;;;;;;;1.52;0.90;;;;;;;23.09;51.42;101781.28;4990081;28;20035;-28
2022/07/03 09:55:09;;;;;;;3.47;0.70;;;;;;;22.33;53.95;101783.94;4990539;28;20027;-27
2022/07/03 09:57:43;;;;;;;4.30;0.98;;;;;;;21.90;54.59;101784.19;4990562;28;20041;-27
2022/07/03 10:00:11;;;;;;;2.25;0.73;;;;;;;21.99;54.64;101782.81;4990809;28;20109;-28
2022/07/03 10:02:46;;;;;;;3.08;1.38;;;;;;;22.32;55.51;101779.53;4989199;28;20031;-27
2022/07/03 10:05:12;;;;;;;3.00;0.90;;;;;;;23.26;53.23;101791.50;4992672;28;20120;-27
2022/07/03 10:07:56;;;;;;;3.05;0.70;;;;;;;23.75;49.20;101784.50;4994233;28;20466;-27
2022/07/03 10:10:23;;;;;;;2.50;0.70;;;;;;;23.49;48.66;101787.84;4994063;28;20445;-28
2022/07/03 10:12:52;;;;;;;2.83;0.67;;;;;;;23.15;50.82;101790.47;4994005;28;20085;-28
2022/07/03 10:15:19;;;;;;;3.58;0.95;;;;;;;23.43;48.78;101785.00;4992594;28;20277;-27
2022/07/03 10:17:48;;;;;;;1.63;0.55;;;;;;;23.41;48.87;101792.63;4993908;28;20026;-28
2022/07/03 10:20:14;;;;;;;1.05;0.60;;;;;;;23.12;49.08;101793.69;4992465;28;20174;-27
2022/07/03 10:22:42;;;;;;;1.55;0.55;;;;;;;22.56;50.46;101793.25;4993994;28;20034;-27
2022/07/03 10:25:08;;;;;;;6.25;1.10;;;;;;;22.27;52.32;101805.97;4990959;28;20054;-28
2022/07/03 10:27:35;;;;;;;1.55;0.90;;;;;;;22.02;54.02;101809.72;4991630;28;20072;-27
2022/07/03 10:30:01;;;;;;;6.90;1.17;;;;;;;22.05;53.84;101803.78;4994076;28;20417;-26
2022/07/03 10:32:29;;;;;;;1.98;0.90;;;;;;;21.89;53.08;101808.03;4991637;28;20027;-26
2022/07/03 10:34:55;;;;;;;2.47;0.73;;;;;;;21.59;54.82;101816.28;4991561;28;20133;-28
2022/07/03 10:37:21;;;;;;;2.90;1.10;;;;;;;22.02;54.11;101809.72;4992939;28;20192;-27
2022/07/03 10:45:37;;;;;;;1.40;0.88;;;;;;;25.27;47.04;101817.41;4997273;28;20113;-28
2022/07/03 10:48:02;;;;;;;4.40;0.80;;;;;;;25.09;46.10;101810.28;4993228;28;20141;-29
2022/07/03 10:50:29;;;;;;;3.65;0.90;;;;;;;24.46;47.04;101811.56;4993056;28;20053;-28
2022/07/03 10:53:21;;;;;;;2.70;1.00;;;;;;;23.63;50.22;101813.94;4992735;28;20046;-28
2022/07/03 10:56:03;;;;;;;4.25;0.82;;;;;;;23.74;49.56;101813.06;4993051;28;20142;-28
2022/07/03 10:58:28;;;;;;;4.82;1.00;;;;;;;24.12;49.59;101808.81;4993260;28;20031;-28
2022/07/03 11:00:56;;;;;;;2.95;1.10;;;;;;;24.23;48.95;101813.38;4997402;28;20377;-28
2022/07/03 11:03:59;;;;;;;3.45;1.08;;;;;;;23.88;48.95;101811.69;5002558;28;20515;-27
2022/07/03 11:06:49;;;;;;;4.07;0.98;;;;;;;23.26;50.04;101806.06;4991291;28;20019;-27
2022/07/03 11:09:15;;;;;;;4.05;1.20;;;;;;;23.21;51.00;101809.53;4992686;28;20034;-28
2022/07/03 11:11:55;;;;;;;3.35;1.23;;;;;;;23.23;51.26;101810.13;4992326;28;20033;-27
2022/07/03 11:14:22;;;;;;;3.75;1.30;;;;;;;23.08;51.54;101801.56;4992094;28;20082;-27
2022/07/03 11:16:48;;;;;;;3.05;0.93;;;;;;;22.90;50.90;101810.75;4992042;28;20478;-28
2022/07/03 11:19:14;;;;;;;1.80;0.70;;;;;;;22.38;51.70;101802.44;4992617;28;20108;-28
2022/07/03 11:21:48;;;;;;;2.60;1.00;;;;;;;22.24;52.99;101793.59;4992132;28;20490;-27
2022/07/03 11:24:35;;;;;;;2.85;1.08;;;;;;;22.06;54.33;101805.44;4990377;28;20045;-27
2022/07/03 11:27:23;;;;;;;2.72;1.25;;;;;;;21.68;55.68;101803.91;4992201;28;20514;-27
2022/07/03 11:29:50;;;;;;;2.63;1.23;;;;;;;21.41;56.81;101803.44;4992209;28;20588;-28
2022/07/03 11:32:57;;;;;;;6.32;1.40;;;;;;;21.12;57.08;101810.53;5007610;28;20034;-27
2022/07/03 11:35:55;;;;;;;4.47;1.15;;;;;;;21.01;57.91;101814.00;4982256;28;20453;-27
2022/07/03 11:38:23;;;;;;;4.60;1.30;;;;;;;20.84;59.06;101813.78;4992632;28;20062;-27
2022/07/03 11:40:50;;;;;;;;;;;;;;;20.81;58.36;101822.44;4992837;28;20038;-27
2022/07/03 11:43:15;;;;;;;6.25;0.90;;;;;;;21.09;58.14;101821.06;4992521;28;20360;-27